Chino, California
Current Conditions -  °F | °C
As of 11:53 PM on Thursday 23 Oct 2014 (Local Time) from KCNO Reporting Station
Haze Haze  
Wind Chill: 61°   Ceiling: Unl
Heat Index: 61°   Visibility: 5mi
Dew Point: 51°   Wind: 3mph
Humidity: 70%   Direction: 60°ENE
Pressure: 29.99"   Gusts: NA
Location:  34.01°N, 117.68°W
Report Text: KCNO 240653Z AUTO 06003KT 5SM HZ CLR 16/11 A2999 RMK AO2 SLP148 T01610106
Loading
Personal Weather Stations






























Interactive Weather Map
Tropical Storm Tracking
New forecast layout! Learn more

10-Day Weather Forecast

Advertisements
Track Severe Weather on mobile